M/T Goviken — 9HA2718 — position and weather

sailwx.info

Track history (hours):
 
Tides and Currents Weather Stations Pressure Air Temp Water Temp Dewpoint Dewpoint Depression Visibility Wind Speed Wind Dir Waves Ship Positions

M/T Goviken

Last reported at 2015-May-07 06:29 UTC. Time now 2015-May-07 08:39 UTC.
Position N 54°18' E 005°15'.

Length 88 m; draft 5.5 m.

Type: Ship (hazmat cat A). MMSI: 215389000.

Date/timePositionNaut miles runAvg speedWind from/ knotsBaromVisibWave heightAir tempDewpointWater temp
2015-May-07 06:29N 54°18' E 005°15'10 9.8
2015-May-07 05:30N 54°11' E 005°04'9 9.5
2015-May-07 04:33N 54°03' E 004°56'10 9.8
2015-May-07 03:32N 53°54' E 004°54'10 9.9
2015-May-07 02:33N 53°44' E 004°52'10 9.8
2015-May-07 01:33N 53°34' E 004°48'10 9.7
2015-May-07 00:33N 53°26' E 004°42'14 9.8
2015-May-06 23:05N 53°12' E 004°32'610.0
2015-May-06 22:27N 53°06' E 004°28'910.0
2015-May-06 21:33N 52°59' E 004°21'1010.2
2015-May-06 20:33N 52°50' E 004°13'1010.0
2015-May-06 19:33N 52°41' E 004°03'1010.1
2015-May-06 18:33N 52°33' E 003°55'1110.9
2015-May-06 17:33N 52°22' E 003°52'1110.6
2015-May-06 16:33N 52°11' E 003°54'10 9.6
2015-May-06 15:33N 52°02' E 003°60'9 9.5
2015-May-06 14:33N 51°56' E 004°11'3 3.4
2015-May-06 13:33N 51°53' E 004°14'1 0.8
2015-May-06 12:27N 51°53' E 004°15'0 0.0
2015-May-06 11:33N 51°53' E 004°15'0 0.0
2015-May-06 10:33N 51°53' E 004°15'0 0.0
2015-May-06 09:33N 51°53' E 004°15'0 0.0
2015-May-06 08:27N 51°53' E 004°15'0 0.0
2015-May-06 07:33N 51°53' E 004°15'0 0.0
2015-May-06 06:30N 51°53' E 004°15'0 0.0
2015-May-06 05:33N 51°53' E 004°15'0 0.0
2015-May-06 04:30N 51°53' E 004°15'0 0.0
2015-May-06 03:30N 51°53' E 004°15'0 0.0
2015-May-06 02:33N 51°53' E 004°15'0 0.0
2015-May-06 01:33N 51°53' E 004°15'0 0.0
2015-May-06 00:27N 51°53' E 004°15'0 0.0
2015-May-05 23:33N 51°53' E 004°15'0 0.0
2015-May-05 22:24N 51°53' E 004°15'0 0.0
2015-May-05 21:30N 51°53' E 004°15'0 0.0
2015-May-05 20:33N 51°53' E 004°15'0 0.0
2015-May-05 19:12N 51°53' E 004°15'0 0.0
2015-May-05 18:24N 51°53' E 004°15'0 0.0
2015-May-05 17:18N 51°53' E 004°15'0 0.0
2015-May-05 16:33N 51°53' E 004°15'0 0.0
2015-May-05 15:27N 51°53' E 004°15'0 0.0
2015-May-05 14:33N 51°53' E 004°15'0 0.0
2015-May-05 13:33N 51°53' E 004°15'1 1.5
2015-May-05 12:33N 51°54' E 004°14'6 5.7
2015-May-05 11:33N 51°58' E 004°07'7 7.0
2015-May-05 10:33N 51°60' E 003°56'6 6.4
2015-May-05 09:33N 52°03' E 003°47'5 2.1
2015-May-05 07:07N 52°08' E 003°44'0 0.0
2015-May-05 06:22N 52°08' E 003°44'0 0.0
2015-May-05 03:09N 52°08' E 003°44'1 2.2
2015-May-05 02:30N 52°09' E 003°45'9 9.5
2015-May-05 01:33N 52°18' E 003°47'1211.0
2015-May-05 00:27N 52°30' E 003°51'1112.2
2015-May-04 23:33N 52°40' E 003°54'1313.0
2015-May-04 22:33N 52°53' E 003°59'1312.8
2015-May-04 21:33N 53°04' E 004°11'2411.9
2015-May-04 19:33N 53°24' E 004°32'1111.3
2015-May-04 18:33N 53°34' E 004°38'1611.1
2015-May-04 17:09N 53°49' E 004°47'711.3
2015-May-04 16:32N 53°56' E 004°51'1111.6
2015-May-04 15:33N 54°06' E 004°58'1212.0
2015-May-04 14:33N 54°16' E 005°11'268 9.6
2015-May-03 10:33N 58°44' E 005°06'1111.0
2015-May-03 09:33N 58°55' E 005°07'1111.0
2015-May-03 08:33N 59°05' E 005°17'1111.1
2015-May-03 07:33N 59°13' E 005°32'2 0.1
2015-May-02 18:33N 59°14' E 005°31'1010.2
2015-May-02 17:33N 59°05' E 005°23'10 9.9
2015-May-02 16:34N 58°58' E 005°10'1010.1
2015-May-02 15:34N 58°48' E 005°06'88 9.2
2015-May-02 06:04N 57°20' E 005°22'5 7.9
2015-May-02 05:24N 57°15' E 005°24'17410.2
2015-May-01 12:24N 54°22' E 005°20'911.1
2015-May-01 11:33N 54°15' E 005°10'1111.0
2015-May-01 10:33N 54°06' E 004°57'1210.6
2015-May-01 09:27N 53°55' E 004°55'910.5
2015-May-01 08:33N 53°45' E 004°53'1210.6
2015-May-01 07:25N 53°34' E 004°48'3211.2
2015-May-01 04:33N 53°04' E 004°26'1212.0
2015-May-01 03:33N 52°54' E 004°17'1212.2
2015-May-01 02:34N 52°44' E 004°06'1211.8
2015-May-01 01:33N 52°34' E 003°56'1212.3
2015-May-01 00:33N 52°21' E 003°52'1212.1
2015-Apr-30 23:34N 52°10' E 003°54'10 9.5
2015-Apr-30 22:34N 52°01' E 003°60'10 9.6
2015-Apr-30 21:34N 51°55' E 004°13'3 2.9
2015-Apr-30 20:34N 51°53' E 004°15'0 0.0
2015-Apr-30 19:09N 51°53' E 004°15'0 0.0
2015-Apr-30 17:27N 51°53' E 004°15'0 0.0
2015-Apr-30 15:12N 51°53' E 004°15'0 0.0
2015-Apr-30 14:18N 51°53' E 004°15'0 0.0
2015-Apr-30 13:30N 51°53' E 004°15'0 0.0
2015-Apr-30 12:06N 51°53' E 004°15'0 0.0
2015-Apr-30 11:12N 51°53' E 004°15'0 0.0
2015-Apr-30 10:24N 51°53' E 004°15'0 0.0
2015-Apr-30 09:30N 51°53' E 004°15'0 0.0
2015-Apr-30 07:15N 51°53' E 004°15'0 0.0
2015-Apr-30 06:21N 51°53' E 004°15'0 0.0
2015-Apr-30 05:33N 51°53' E 004°15'0 0.0
2015-Apr-30 04:33N 51°53' E 004°15'0 0.0
2015-Apr-30 03:33N 51°53' E 004°15'0 0.0
2015-Apr-30 02:33N 51°53' E 004°15'0 0.0
2015-Apr-30 01:33N 51°53' E 004°15'0 0.0
2015-Apr-30 00:33N 51°53' E 004°15'0 0.0
2015-Apr-29 23:33N 51°53' E 004°15'0 0.0
2015-Apr-29 22:27N 51°53' E 004°15'0 0.0
2015-Apr-29 21:33N 51°53' E 004°15'0 0.0
2015-Apr-29 20:33N 51°53' E 004°15'0 0.0
2015-Apr-29 19:33N 51°53' E 004°15'0 0.0
2015-Apr-29 18:24N 51°53' E 004°15'0 0.0
2015-Apr-29 17:21N 51°53' E 004°15'0 0.0
2015-Apr-29 16:33N 51°53' E 004°15'0 0.0
2015-Apr-29 15:24N 51°53' E 004°15'0 0.0
2015-Apr-29 14:09N 51°53' E 004°15'0 0.0
2015-Apr-29 13:33N 51°53' E 004°15'1 1.2
2015-Apr-29 12:33N 51°54' E 004°14'5 5.1
2015-Apr-29 11:33N 51°58' E 004°08'1111.3
2015-Apr-29 10:33N 52°00' E 003°51'8 8.1
2015-Apr-29 09:33N 52°08' E 003°46'1010.5
2015-Apr-29 08:33N 52°18' E 003°47'7310.4
2015-Apr-29 01:32N 53°26' E 004°33'10 9.6
2015-Apr-29 00:31N 53°35' E 004°39'2310.5
2015-Apr-28 22:17N 53°57' E 004°52'810.5
2015-Apr-28 21:32N 54°05' E 004°56'1010.0
2015-Apr-28 20:32N 54°13' E 005°07'10 9.8
2015-Apr-28 19:33N 54°20' E 005°18'17210.1
2015-Apr-28 02:25N 57°12' E 005°24'9510.7
2015-Apr-27 17:32N 58°47' E 005°06'1211.8
2015-Apr-27 16:33N 58°59' E 005°10'1110.7
2015-Apr-27 15:33N 59°07' E 005°24'10 9.8
2015-Apr-27 14:33N 59°16' E 005°30'  
Track history (hours):
 
Tides and Currents Weather Stations Pressure Air Temp Water Temp Dewpoint Dewpoint Depression Visibility Wind Speed Wind Dir Waves Ship Positions

M/T Goviken

Last reported at 2015-May-07 06:29 UTC. Time now 2015-May-07 08:39 UTC.
Position N 54°18' E 005°15'.

Length 88 m; draft 5.5 m.

Type: Ship (hazmat cat A). MMSI: 215389000.

Date/timePositionNaut miles runAvg speedWind from/ knotsBaromVisibWave heightAir tempDewpointWater temp
2015-May-07 06:29N 54°18' E 005°15'10 9.8
2015-May-07 05:30N 54°11' E 005°04'9 9.5
2015-May-07 04:33N 54°03' E 004°56'10 9.8
2015-May-07 03:32N 53°54' E 004°54'10 9.9
2015-May-07 02:33N 53°44' E 004°52'10 9.8
2015-May-07 01:33N 53°34' E 004°48'10 9.7
2015-May-07 00:33N 53°26' E 004°42'14 9.8
2015-May-06 23:05N 53°12' E 004°32'610.0
2015-May-06 22:27N 53°06' E 004°28'910.0
2015-May-06 21:33N 52°59' E 004°21'1010.2
2015-May-06 20:33N 52°50' E 004°13'1010.0
2015-May-06 19:33N 52°41' E 004°03'1010.1
2015-May-06 18:33N 52°33' E 003°55'1110.9
2015-May-06 17:33N 52°22' E 003°52'1110.6
2015-May-06 16:33N 52°11' E 003°54'10 9.6
2015-May-06 15:33N 52°02' E 003°60'9 9.5
2015-May-06 14:33N 51°56' E 004°11'3 3.4
2015-May-06 13:33N 51°53' E 004°14'1 0.8
2015-May-06 12:27N 51°53' E 004°15'0 0.0
2015-May-06 11:33N 51°53' E 004°15'0 0.0
2015-May-06 10:33N 51°53' E 004°15'0 0.0
2015-May-06 09:33N 51°53' E 004°15'0 0.0
2015-May-06 08:27N 51°53' E 004°15'0 0.0
2015-May-06 07:33N 51°53' E 004°15'0 0.0
2015-May-06 06:30N 51°53' E 004°15'0 0.0
2015-May-06 05:33N 51°53' E 004°15'0 0.0
2015-May-06 04:30N 51°53' E 004°15'0 0.0
2015-May-06 03:30N 51°53' E 004°15'0 0.0
2015-May-06 02:33N 51°53' E 004°15'0 0.0
2015-May-06 01:33N 51°53' E 004°15'0 0.0
2015-May-06 00:27N 51°53' E 004°15'0 0.0
2015-May-05 23:33N 51°53' E 004°15'0 0.0
2015-May-05 22:24N 51°53' E 004°15'0 0.0
2015-May-05 21:30N 51°53' E 004°15'0 0.0
2015-May-05 20:33N 51°53' E 004°15'0 0.0
2015-May-05 19:12N 51°53' E 004°15'0 0.0
2015-May-05 18:24N 51°53' E 004°15'0 0.0
2015-May-05 17:18N 51°53' E 004°15'0 0.0
2015-May-05 16:33N 51°53' E 004°15'0 0.0
2015-May-05 15:27N 51°53' E 004°15'0 0.0
2015-May-05 14:33N 51°53' E 004°15'0 0.0
2015-May-05 13:33N 51°53' E 004°15'1 1.5
2015-May-05 12:33N 51°54' E 004°14'6 5.7
2015-May-05 11:33N 51°58' E 004°07'7 7.0
2015-May-05 10:33N 51°60' E 003°56'6 6.4
2015-May-05 09:33N 52°03' E 003°47'5 2.1
2015-May-05 07:07N 52°08' E 003°44'0 0.0
2015-May-05 06:22N 52°08' E 003°44'0 0.0
2015-May-05 03:09N 52°08' E 003°44'1 2.2
2015-May-05 02:30N 52°09' E 003°45'9 9.5
2015-May-05 01:33N 52°18' E 003°47'1211.0
2015-May-05 00:27N 52°30' E 003°51'1112.2
2015-May-04 23:33N 52°40' E 003°54'1313.0
2015-May-04 22:33N 52°53' E 003°59'1312.8
2015-May-04 21:33N 53°04' E 004°11'2411.9
2015-May-04 19:33N 53°24' E 004°32'1111.3
2015-May-04 18:33N 53°34' E 004°38'1611.1
2015-May-04 17:09N 53°49' E 004°47'711.3
2015-May-04 16:32N 53°56' E 004°51'1111.6
2015-May-04 15:33N 54°06' E 004°58'1212.0
2015-May-04 14:33N 54°16' E 005°11'268 9.6
2015-May-03 10:33N 58°44' E 005°06'1111.0
2015-May-03 09:33N 58°55' E 005°07'1111.0
2015-May-03 08:33N 59°05' E 005°17'1111.1
2015-May-03 07:33N 59°13' E 005°32'2 0.1
2015-May-02 18:33N 59°14' E 005°31'1010.2
2015-May-02 17:33N 59°05' E 005°23'10 9.9
2015-May-02 16:34N 58°58' E 005°10'1010.1
2015-May-02 15:34N 58°48' E 005°06'88 9.2
2015-May-02 06:04N 57°20' E 005°22'5 7.9
2015-May-02 05:24N 57°15' E 005°24'17410.2
2015-May-01 12:24N 54°22' E 005°20'911.1
2015-May-01 11:33N 54°15' E 005°10'1111.0
2015-May-01 10:33N 54°06' E 004°57'1210.6
2015-May-01 09:27N 53°55' E 004°55'910.5
2015-May-01 08:33N 53°45' E 004°53'1210.6
2015-May-01 07:25N 53°34' E 004°48'3211.2
2015-May-01 04:33N 53°04' E 004°26'1212.0
2015-May-01 03:33N 52°54' E 004°17'1212.2
2015-May-01 02:34N 52°44' E 004°06'1211.8
2015-May-01 01:33N 52°34' E 003°56'1212.3
2015-May-01 00:33N 52°21' E 003°52'1212.1
2015-Apr-30 23:34N 52°10' E 003°54'10 9.5
2015-Apr-30 22:34N 52°01' E 003°60'10 9.6
2015-Apr-30 21:34N 51°55' E 004°13'3 2.9
2015-Apr-30 20:34N 51°53' E 004°15'0 0.0
2015-Apr-30 19:09N 51°53' E 004°15'0 0.0
2015-Apr-30 17:27N 51°53' E 004°15'0 0.0
2015-Apr-30 15:12N 51°53' E 004°15'0 0.0
2015-Apr-30 14:18N 51°53' E 004°15'0 0.0
2015-Apr-30 13:30N 51°53' E 004°15'0 0.0
2015-Apr-30 12:06N 51°53' E 004°15'0 0.0
2015-Apr-30 11:12N 51°53' E 004°15'0 0.0
2015-Apr-30 10:24N 51°53' E 004°15'0 0.0
2015-Apr-30 09:30N 51°53' E 004°15'0 0.0
2015-Apr-30 07:15N 51°53' E 004°15'0 0.0
2015-Apr-30 06:21N 51°53' E 004°15'0 0.0
2015-Apr-30 05:33N 51°53' E 004°15'0 0.0
2015-Apr-30 04:33N 51°53' E 004°15'0 0.0
2015-Apr-30 03:33N 51°53' E 004°15'0 0.0
2015-Apr-30 02:33N 51°53' E 004°15'0 0.0
2015-Apr-30 01:33N 51°53' E 004°15'0 0.0
2015-Apr-30 00:33N 51°53' E 004°15'0 0.0
2015-Apr-29 23:33N 51°53' E 004°15'0 0.0
2015-Apr-29 22:27N 51°53' E 004°15'0 0.0
2015-Apr-29 21:33N 51°53' E 004°15'0 0.0
2015-Apr-29 20:33N 51°53' E 004°15'0 0.0
2015-Apr-29 19:33N 51°53' E 004°15'0 0.0
2015-Apr-29 18:24N 51°53' E 004°15'0 0.0
2015-Apr-29 17:21N 51°53' E 004°15'0 0.0
2015-Apr-29 16:33N 51°53' E 004°15'0 0.0
2015-Apr-29 15:24N 51°53' E 004°15'0 0.0
2015-Apr-29 14:09N 51°53' E 004°15'0 0.0
2015-Apr-29 13:33N 51°53' E 004°15'1 1.2
2015-Apr-29 12:33N 51°54' E 004°14'5 5.1
2015-Apr-29 11:33N 51°58' E 004°08'1111.3
2015-Apr-29 10:33N 52°00' E 003°51'8 8.1
2015-Apr-29 09:33N 52°08' E 003°46'1010.5
2015-Apr-29 08:33N 52°18' E 003°47'7310.4
2015-Apr-29 01:32N 53°26' E 004°33'10 9.6
2015-Apr-29 00:31N 53°35' E 004°39'2310.5
2015-Apr-28 22:17N 53°57' E 004°52'810.5
2015-Apr-28 21:32N 54°05' E 004°56'1010.0
2015-Apr-28 20:32N 54°13' E 005°07'10 9.8
2015-Apr-28 19:33N 54°20' E 005°18'17210.1
2015-Apr-28 02:25N 57°12' E 005°24'9510.7
2015-Apr-27 17:32N 58°47' E 005°06'1211.8
2015-Apr-27 16:33N 58°59' E 005°10'1110.7
2015-Apr-27 15:33N 59°07' E 005°24'10 9.8
2015-Apr-27 14:33N 59°16' E 005°30'  

Dump ship's entire track history